createdAt,value
2022-09-26T00:01:50.170Z,100392.57
2022-09-26T00:05:13.694Z,100385.33
2022-09-26T00:08:32.332Z,100366.29
2022-09-26T00:11:42.950Z,100365.17
2022-09-26T00:15:08.498Z,100340.73
2022-09-26T00:18:18.612Z,100325.70
2022-09-26T00:21:30.466Z,100330.30
2022-09-26T00:24:40.682Z,100323.58
2022-09-26T00:31:37.420Z,100342.62
2022-09-26T00:34:35.862Z,100363.41
2022-09-26T00:37:45.922Z,100373.48
2022-09-26T00:40:38.984Z,100384.33
2022-09-26T00:43:49.135Z,100380.67
2022-09-26T00:47:20.322Z,100387.35
2022-09-26T00:50:09.250Z,100391.88
2022-09-26T00:53:14.460Z,100388.98
2022-09-26T00:56:27.384Z,100387.81
2022-09-26T00:59:40.227Z,100385.41
2022-09-26T01:02:47.043Z,100377.15
2022-09-26T01:06:16.442Z,100379.55
2022-09-26T01:09:28.532Z,100380.84
2022-09-26T01:12:39.083Z,100368.96
2022-09-26T01:15:31.931Z,100374.28
2022-09-26T01:18:43.168Z,100379.54
2022-09-26T01:26:08.183Z,100379.13
2022-09-26T01:29:55.215Z,100378.14
2022-09-26T01:33:22.317Z,100373.25
2022-09-26T01:36:38.648Z,100375.20
2022-09-26T01:39:56.093Z,100380.55
2022-09-26T01:43:13.099Z,100377.75
2022-09-26T01:46:31.147Z,100364.80
2022-09-26T01:49:20.380Z,100362.48
2022-09-26T01:52:34.411Z,100371.18
2022-09-26T01:55:39.904Z,100348.55
2022-09-26T01:58:52.931Z,100351.41
2022-09-26T02:01:53.279Z,100348.35
2022-09-26T02:05:17.891Z,100356.80
2022-09-26T02:08:44.065Z,100368.09
2022-09-26T02:15:59.250Z,100366.80
2022-09-26T02:19:11.592Z,100362.90
2022-09-26T02:22:38.997Z,100372.85
2022-09-26T02:25:49.274Z,100370.92
2022-09-26T02:29:17.728Z,100354.16
2022-09-26T02:32:29.014Z,100358.77
2022-09-26T02:35:46.438Z,100356.30
2022-09-26T02:43:01.515Z,100363.52
2022-09-26T02:46:40.882Z,100365.27
2022-09-26T02:49:57.860Z,100362.34
2022-09-26T02:53:12.190Z,100359.98
2022-09-26T02:56:16.622Z,100348.66
2022-09-26T02:59:35.328Z,100346.60
2022-09-26T03:02:34.151Z,100344.73
2022-09-26T03:09:12.926Z,100351.28
2022-09-26T03:12:07.369Z,100363.81
2022-09-26T03:15:39.677Z,100363.23
2022-09-26T03:19:04.991Z,100359.04
2022-09-26T03:22:52.127Z,100359.41
2022-09-26T03:34:07.309Z,100361.42
2022-09-26T03:37:35.211Z,100364.62
2022-09-26T03:40:46.677Z,100362.62
2022-09-26T03:43:55.113Z,100364.31
2022-09-26T03:47:05.697Z,100372.32
2022-09-26T03:54:14.249Z,100359.63
2022-09-26T03:57:19.019Z,100360.73
2022-09-26T04:00:29.203Z,100361.86
2022-09-26T04:07:40.529Z,100363.08
2022-09-26T04:14:35.143Z,100368.27
2022-09-26T04:17:59.525Z,100363.70
2022-09-26T04:21:12.785Z,100370.37
2022-09-26T04:24:22.884Z,100359.40
2022-09-26T04:31:35.814Z,100343.46
2022-09-26T04:35:05.200Z,100343.15
2022-09-26T04:42:18.063Z,100337.95
2022-09-26T04:49:29.403Z,100338.42
2022-09-26T04:56:32.377Z,100332.92
2022-09-26T04:59:43.001Z,100328.74
2022-09-26T05:02:53.113Z,100319.27
2022-09-26T05:10:04.514Z,100326.70
2022-09-26T05:17:15.140Z,100339.69
2022-09-26T05:20:29.530Z,100348.45
2022-09-26T05:23:58.109Z,100350.89
2022-09-26T05:27:08.902Z,100355.79
2022-09-26T05:34:42.699Z,100382.00
2022-09-26T05:38:00.519Z,100384.98
2022-09-26T05:45:16.013Z,100399.97
2022-09-26T05:48:42.895Z,100407.64
2022-09-26T05:55:49.832Z,100426.28
2022-09-26T05:59:05.695Z,100431.48
2022-09-26T06:02:18.484Z,100437.07
2022-09-26T06:09:35.653Z,100447.21
2022-09-26T06:12:50.699Z,100440.02
2022-09-26T06:15:43.523Z,100433.13
2022-09-26T06:19:11.092Z,100430.55
2022-09-26T06:26:37.872Z,100457.05
2022-09-26T06:29:27.941Z,100452.94
2022-09-26T06:32:39.471Z,100446.31
2022-09-26T06:35:55.101Z,100455.48
2022-09-26T06:47:13.426Z,100461.73
2022-09-26T06:50:24.115Z,100453.52
2022-09-26T06:54:20.192Z,100448.77
2022-09-26T06:57:40.245Z,100433.56
2022-09-26T07:00:36.812Z,100435.75
2022-09-26T07:03:29.815Z,100433.70
2022-09-26T07:10:41.211Z,100452.13
2022-09-26T07:13:53.255Z,100463.77
2022-09-26T07:17:03.326Z,100471.16
2022-09-26T07:20:25.261Z,100481.26
2022-09-26T07:23:38.257Z,100496.35
2022-09-26T07:26:39.053Z,100502.60
2022-09-26T07:29:32.982Z,100505.16
2022-09-26T07:32:47.957Z,100509.11
2022-09-26T07:35:57.739Z,100515.84
2022-09-26T07:38:53.750Z,100520.20
2022-09-26T07:41:46.901Z,100523.11
2022-09-26T07:47:35.873Z,100515.19
2022-09-26T07:50:15.287Z,100516.52
2022-09-26T07:53:09.548Z,100520.55
2022-09-26T07:56:10.656Z,100522.34
2022-09-26T07:58:59.302Z,100523.36
2022-09-26T08:01:47.586Z,100529.87
2022-09-26T08:04:38.112Z,100530.91
2022-09-26T08:07:08.771Z,100527.77
2022-09-26T08:09:43.108Z,100526.63
2022-09-26T08:12:37.680Z,100525.98
2022-09-26T08:15:28.200Z,100517.27
2022-09-26T08:18:07.243Z,100516.30
2022-09-26T08:22:46.881Z,100515.19
2022-09-26T08:25:30.240Z,100511.73
2022-09-26T08:28:13.793Z,100507.30
2022-09-26T08:30:44.465Z,100507.06
2022-09-26T08:33:12.864Z,100513.94
2022-09-26T08:35:40.925Z,100515.83
2022-09-26T08:38:36.041Z,100523.38
2022-09-26T08:41:34.815Z,100529.23
2022-09-26T08:44:31.484Z,100531.96
2022-09-26T08:47:23.123Z,100531.96
2022-09-26T08:50:21.283Z,100539.36
2022-09-26T08:52:51.461Z,100543.15
2022-09-26T08:55:21.219Z,100538.77
2022-09-26T08:57:52.551Z,100539.04
2022-09-26T09:00:22.003Z,100546.55
2022-09-26T09:03:37.125Z,100547.09
2022-09-26T09:06:25.382Z,100553.52
2022-09-26T09:08:55.946Z,100544.55
2022-09-26T09:11:51.198Z,100548.14
2022-09-26T09:14:40.489Z,100552.63
2022-09-26T09:17:35.665Z,100549.06
2022-09-26T09:20:28.526Z,100554.19
2022-09-26T09:23:28.089Z,100551.05
2022-09-26T09:29:49.412Z,100552.59
2022-09-26T09:32:44.719Z,100551.52
2022-09-26T09:35:25.513Z,100550.23
2022-09-26T09:38:15.396Z,100549.26
2022-09-26T09:41:08.159Z,100556.70
2022-09-26T09:43:39.602Z,100560.10
2022-09-26T09:46:14.867Z,100558.88
2022-09-26T09:48:43.561Z,100559.71
2022-09-26T09:51:27.332Z,100564.19
2022-09-26T09:54:07.661Z,100567.42
2022-09-26T09:56:40.295Z,100564.50
2022-09-26T09:59:19.503Z,100561.58
2022-09-26T10:02:12.592Z,100560.05
2022-09-26T10:04:46.239Z,100557.29
2022-09-26T10:07:18.503Z,100556.52
2022-09-26T10:10:00.707Z,100554.18
2022-09-26T10:12:56.748Z,100564.35
2022-09-26T10:15:30.653Z,100569.98
2022-09-26T10:18:26.472Z,100562.77
2022-09-26T10:21:11.659Z,100559.59
2022-09-26T10:23:41.643Z,100574.11
2022-09-26T10:26:16.389Z,100582.06
2022-09-26T10:28:46.287Z,100580.72
2022-09-26T10:31:22.259Z,100576.55
2022-09-26T10:34:05.153Z,100570.06
2022-09-26T10:36:34.562Z,100564.95
2022-09-26T10:39:24.301Z,100565.04
2022-09-26T10:41:57.343Z,100565.48
2022-09-26T10:44:26.580Z,100565.55
2022-09-26T10:47:08.385Z,100573.44
2022-09-26T10:49:45.416Z,100563.80
2022-09-26T10:52:37.397Z,100573.40
2022-09-26T10:55:10.935Z,100573.50
2022-09-26T10:57:44.923Z,100576.02
2022-09-26T11:00:18.202Z,100583.41
2022-09-26T11:02:47.361Z,100586.27
2022-09-26T11:05:37.362Z,100584.16
2022-09-26T11:08:14.746Z,100575.34
2022-09-26T11:11:15.371Z,100570.65
2022-09-26T11:14:04.216Z,100560.13
2022-09-26T11:16:38.495Z,100545.89
2022-09-26T11:19:10.593Z,100542.48
2022-09-26T11:21:42.477Z,100539.91
2022-09-26T11:24:15.880Z,100538.42
2022-09-26T11:26:49.450Z,100553.77
2022-09-26T11:29:29.219Z,100560.53
2022-09-26T11:32:04.925Z,100543.70
2022-09-26T11:34:45.451Z,100534.14
2022-09-26T11:37:33.103Z,100537.70
2022-09-26T11:40:21.424Z,100535.90
2022-09-26T11:43:02.095Z,100535.11
2022-09-26T11:45:45.215Z,100530.11
2022-09-26T11:48:51.152Z,100532.84
2022-09-26T11:51:45.855Z,100536.72
2022-09-26T11:54:32.135Z,100538.35
2022-09-26T11:57:08.213Z,100549.30
2022-09-26T11:59:52.734Z,100535.98
2022-09-26T12:02:39.471Z,100529.38
2022-09-26T12:05:27.056Z,100529.32
2022-09-26T12:08:10.828Z,100532.48
2022-09-26T12:10:43.423Z,100533.48
2022-09-26T12:13:18.592Z,100540.24
2022-09-26T12:15:54.531Z,100542.76
2022-09-26T12:18:27.007Z,100544.21
2022-09-26T12:21:06.115Z,100557.23
2022-09-26T12:23:37.235Z,100559.40
2022-09-26T12:26:10.769Z,100555.14
2022-09-26T12:29:03.163Z,100552.09
2022-09-26T12:31:47.829Z,100540.06
2022-09-26T12:34:37.254Z,100535.07
2022-09-26T12:37:12.555Z,100529.93
2022-09-26T12:39:52.080Z,100529.84
2022-09-26T12:42:29.075Z,100519.48
2022-09-26T12:45:10.815Z,100530.55
2022-09-26T12:47:52.450Z,100525.49
2022-09-26T12:50:33.450Z,100518.96
2022-09-26T12:53:23.456Z,100522.01
2022-09-26T12:55:57.136Z,100523.00
2022-09-26T12:58:33.629Z,100532.89
2022-09-26T13:01:06.014Z,100532.20
2022-09-26T13:03:50.886Z,100532.09
2022-09-26T13:06:32.725Z,100545.55
2022-09-26T13:09:12.322Z,100542.88
2022-09-26T13:11:46.968Z,100544.30
2022-09-26T13:14:26.842Z,100546.51
2022-09-26T13:17:06.004Z,100549.77
2022-09-26T13:19:40.986Z,100548.95
2022-09-26T13:22:17.723Z,100555.98
2022-09-26T13:24:49.650Z,100548.30
2022-09-26T13:27:19.887Z,100541.56
2022-09-26T13:29:50.954Z,100534.00
2022-09-26T13:32:23.604Z,100529.56
2022-09-26T13:34:55.042Z,100517.52
2022-09-26T13:37:31.114Z,100513.85
2022-09-26T13:40:04.934Z,100519.58
2022-09-26T13:42:38.141Z,100513.38
2022-09-26T13:45:16.395Z,100516.95
2022-09-26T13:47:48.717Z,100516.45
2022-09-26T13:50:22.713Z,100518.08
2022-09-26T13:52:57.588Z,100521.20
2022-09-26T13:55:26.024Z,100524.48
2022-09-26T13:58:06.841Z,100534.69
2022-09-26T14:00:48.510Z,100527.91
2022-09-26T14:03:39.569Z,100521.27
2022-09-26T14:06:08.541Z,100527.85
2022-09-26T14:08:55.108Z,100526.02
2022-09-26T14:11:29.358Z,100524.52
2022-09-26T14:14:17.488Z,100521.14
2022-09-26T14:16:46.084Z,100522.48
2022-09-26T14:19:28.686Z,100529.84
2022-09-26T14:22:01.933Z,100529.67
2022-09-26T14:24:32.941Z,100531.58
2022-09-26T14:27:24.368Z,100532.55
2022-09-26T14:29:53.066Z,100532.14
2022-09-26T14:32:22.847Z,100540.02
2022-09-26T14:34:55.660Z,100536.61
2022-09-26T14:37:27.338Z,100538.93
2022-09-26T14:40:20.812Z,100541.64
2022-09-26T14:42:50.965Z,100544.05
2022-09-26T14:45:21.492Z,100548.11
2022-09-26T14:47:57.331Z,100540.29
2022-09-26T14:50:34.958Z,100532.59
2022-09-26T14:53:13.390Z,100535.09
2022-09-26T14:56:05.994Z,100538.70
2022-09-26T14:59:25.853Z,100539.55
2022-09-26T15:05:59.584Z,100532.67
2022-09-26T15:08:47.892Z,100539.04
2022-09-26T15:11:24.122Z,100539.96
2022-09-26T15:13:54.758Z,100536.30
2022-09-26T15:16:31.891Z,100527.25
2022-09-26T15:19:05.416Z,100521.40
2022-09-26T15:21:39.766Z,100519.41
2022-09-26T15:24:24.451Z,100515.85
2022-09-26T15:26:53.116Z,100510.70
2022-09-26T15:29:24.252Z,100520.39
2022-09-26T15:31:52.634Z,100527.97
2022-09-26T15:34:24.329Z,100527.88
2022-09-26T15:37:17.092Z,100520.00
2022-09-26T15:40:13.368Z,100523.31
2022-09-26T15:43:07.416Z,100528.02
2022-09-26T15:45:50.066Z,100524.66
2022-09-26T15:48:42.643Z,100529.21
2022-09-26T15:51:37.027Z,100528.33
2022-09-26T15:54:12.200Z,100530.52
2022-09-26T15:56:42.665Z,100536.59
2022-09-26T15:59:17.926Z,100532.45
2022-09-26T16:02:19.569Z,100530.91
2022-09-26T16:05:12.647Z,100524.29
2022-09-26T16:07:43.141Z,100528.08
2022-09-26T16:10:25.751Z,100531.27
2022-09-26T16:13:36.340Z,100539.29
2022-09-26T16:16:08.909Z,100541.10
2022-09-26T16:19:30.285Z,100534.95
2022-09-26T16:22:20.215Z,100530.98
2022-09-26T16:25:19.050Z,100536.88
2022-09-26T16:28:22.242Z,100538.64
2022-09-26T16:31:24.329Z,100543.48
2022-09-26T16:33:57.281Z,100539.24
2022-09-26T16:37:17.959Z,100537.36
2022-09-26T16:40:01.715Z,100539.92
2022-09-26T16:43:21.604Z,100548.15
2022-09-26T16:46:13.208Z,100544.66
2022-09-26T16:48:52.720Z,100546.70
2022-09-26T16:51:21.493Z,100547.77
2022-09-26T16:58:00.741Z,100558.95
2022-09-26T17:01:16.904Z,100564.77
2022-09-26T17:04:11.639Z,100574.39
2022-09-26T17:10:49.232Z,100579.73
2022-09-26T17:13:35.827Z,100578.20
2022-09-26T17:16:27.498Z,100582.86
2022-09-26T17:19:16.881Z,100584.74
2022-09-26T17:21:48.664Z,100582.41
2022-09-26T17:24:55.511Z,100582.75
2022-09-26T17:27:30.014Z,100591.25
2022-09-26T17:30:18.375Z,100599.73
2022-09-26T17:33:11.317Z,100601.02
2022-09-26T17:36:02.579Z,100607.69
2022-09-26T17:38:42.761Z,100617.98
2022-09-26T17:41:29.212Z,100620.35
2022-09-26T17:44:37.123Z,100619.27
2022-09-26T17:47:11.408Z,100620.21
2022-09-26T17:50:23.350Z,100628.29
2022-09-26T17:53:28.634Z,100623.55
2022-09-26T17:56:18.050Z,100627.50
2022-09-26T17:59:11.371Z,100623.46
2022-09-26T18:02:17.224Z,100617.89
2022-09-26T18:05:22.062Z,100615.89
2022-09-26T18:08:16.867Z,100618.73
2022-09-26T18:11:13.715Z,100612.98
2022-09-26T18:14:02.883Z,100620.72
2022-09-26T18:16:50.836Z,100619.10
2022-09-26T18:19:38.655Z,100619.27
2022-09-26T18:22:35.556Z,100617.35
2022-09-26T18:25:33.976Z,100621.58
2022-09-26T18:28:23.413Z,100617.80
2022-09-26T18:31:23.108Z,100617.31
2022-09-26T18:34:31.495Z,100616.79
2022-09-26T18:37:39.791Z,100613.52
2022-09-26T18:40:39.968Z,100620.57
2022-09-26T18:43:41.748Z,100623.70
2022-09-26T18:46:48.593Z,100622.67
2022-09-26T18:49:57.709Z,100625.83
2022-09-26T18:52:48.404Z,100624.80
2022-09-26T18:56:08.619Z,100629.23
2022-09-26T18:58:51.306Z,100629.98
2022-09-26T19:01:42.283Z,100636.77
2022-09-26T19:04:39.595Z,100635.34
2022-09-26T19:07:37.545Z,100640.65
2022-09-26T19:10:35.746Z,100639.86
2022-09-26T19:13:46.011Z,100639.55
2022-09-26T19:16:29.414Z,100639.92
2022-09-26T19:19:38.050Z,100641.38
2022-09-26T19:22:47.342Z,100649.50
2022-09-26T19:26:01.662Z,100644.63
2022-09-26T19:28:53.884Z,100648.65
2022-09-26T19:31:42.684Z,100647.14
2022-09-26T19:34:54.265Z,100652.57
2022-09-26T19:37:44.926Z,100652.41
2022-09-26T19:41:10.240Z,100649.02
2022-09-26T19:44:19.430Z,100648.61
2022-09-26T19:47:33.379Z,100650.71
2022-09-26T19:50:43.570Z,100654.65
2022-09-26T19:53:51.760Z,100646.23
2022-09-26T19:56:59.846Z,100643.40
2022-09-26T20:00:10.702Z,100651.64
2022-09-26T20:03:19.927Z,100654.45
2022-09-26T20:06:20.688Z,100657.67
2022-09-26T20:09:31.750Z,100657.41
2022-09-26T20:12:23.124Z,100659.03
2022-09-26T20:15:16.483Z,100650.08
2022-09-26T20:18:15.396Z,100654.07
2022-09-26T20:21:13.252Z,100658.05
2022-09-26T20:24:06.845Z,100659.05
2022-09-26T20:27:17.763Z,100656.29
2022-09-26T20:30:46.526Z,100663.70
2022-09-26T20:33:48.115Z,100664.60
2022-09-26T20:41:18.985Z,100671.48
2022-09-26T20:48:29.120Z,100674.86
2022-09-26T20:51:37.432Z,100676.33
2022-09-26T20:54:28.971Z,100679.98
2022-09-26T20:57:53.112Z,100679.47
2022-09-26T21:01:10.906Z,100675.09
2022-09-26T21:04:19.076Z,100672.86
2022-09-26T21:07:58.237Z,100660.59
2022-09-26T21:11:22.526Z,100655.29
2022-09-26T21:15:11.316Z,100659.63
2022-09-26T21:18:24.005Z,100664.15
2022-09-26T21:21:33.179Z,100667.52
2022-09-26T21:24:29.303Z,100662.05
2022-09-26T21:27:37.505Z,100660.36
2022-09-26T21:34:56.151Z,100653.96
2022-09-26T21:38:04.367Z,100653.89
2022-09-26T21:41:12.915Z,100654.33
2022-09-26T21:44:26.825Z,100652.91
2022-09-26T21:47:54.637Z,100651.87
2022-09-26T21:50:47.466Z,100646.64
2022-09-26T21:53:53.303Z,100649.98
2022-09-26T22:05:17.804Z,100632.24
2022-09-26T22:08:33.871Z,100642.80
2022-09-26T22:11:44.143Z,100649.02
2022-09-26T22:14:50.946Z,100643.97
2022-09-26T22:18:15.300Z,100638.49
2022-09-26T22:21:23.462Z,100640.49
2022-09-26T22:24:32.787Z,100633.09
2022-09-26T22:27:56.977Z,100642.16
2022-09-26T22:35:07.188Z,100652.81
2022-09-26T22:42:16.952Z,100649.17
2022-09-26T22:46:03.702Z,100637.92
2022-09-26T22:49:24.348Z,100628.40
2022-09-26T22:52:47.059Z,100621.77
2022-09-26T22:59:48.696Z,100606.96
2022-09-26T23:03:36.454Z,100598.37
2022-09-26T23:06:44.507Z,100588.52
2022-09-26T23:13:59.116Z,100587.48
2022-09-26T23:17:28.519Z,100579.28
2022-09-26T23:24:38.083Z,100566.92
2022-09-26T23:27:46.372Z,100578.24
2022-09-26T23:30:54.519Z,100576.06
2022-09-26T23:34:04.533Z,100565.19
2022-09-26T23:36:57.349Z,100560.00
2022-09-26T23:40:07.213Z,100551.58
2022-09-26T23:42:57.770Z,100547.17
2022-09-26T23:46:06.880Z,100548.59
2022-09-26T23:48:57.868Z,100548.27
2022-09-26T23:52:07.041Z,100531.88
2022-09-26T23:55:16.329Z,100521.70
2022-09-26T23:58:24.547Z,100515.30
